sensor_id;sensor_type;location;lat;lon;timestamp;pressure;altitude;pressure_sealevel;temperature;humidity
40205;BME280;26963;42.666;23.366;2023-06-19T00:01:46;95005.81;;;20.04;59.21
40205;BME280;26963;42.666;23.366;2023-06-19T00:04:12;95019.53;;;20.11;58.67
40205;BME280;26963;42.666;23.366;2023-06-19T00:06:38;94962.69;;;19.70;59.52
40205;BME280;26963;42.666;23.366;2023-06-19T00:09:03;95020.16;;;20.04;59.51
40205;BME280;26963;42.666;23.366;2023-06-19T00:11:29;95014.66;;;20.01;59.42
40205;BME280;26963;42.666;23.366;2023-06-19T00:13:55;94962.50;;;19.63;59.33
40205;BME280;26963;42.666;23.366;2023-06-19T00:16:20;95015.53;;;19.89;57.52
40205;BME280;26963;42.666;23.366;2023-06-19T00:18:46;95005.59;;;19.81;58.85
40205;BME280;26963;42.666;23.366;2023-06-19T00:21:12;95013.50;;;19.86;59.33
40205;BME280;26963;42.666;23.366;2023-06-19T00:23:37;94998.50;;;19.76;59.34
40205;BME280;26963;42.666;23.366;2023-06-19T00:26:04;94936.22;;;19.35;58.65
40205;BME280;26963;42.666;23.366;2023-06-19T00:28:30;94904.50;;;19.07;59.29
40205;BME280;26963;42.666;23.366;2023-06-19T00:30:56;95009.28;;;19.72;59.17
40205;BME280;26963;42.666;23.366;2023-06-19T00:33:22;95004.38;;;19.62;59.12
40205;BME280;26963;42.666;23.366;2023-06-19T00:35:52;94902.75;;;18.99;59.42
40205;BME280;26963;42.666;23.366;2023-06-19T00:38:17;94932.59;;;19.15;59.60
40205;BME280;26963;42.666;23.366;2023-06-19T00:40:43;94943.09;;;19.17;58.53
40205;BME280;26963;42.666;23.366;2023-06-19T00:43:08;95003.34;;;19.54;59.09
40205;BME280;26963;42.666;23.366;2023-06-19T00:45:34;94930.72;;;19.03;59.32
40205;BME280;26963;42.666;23.366;2023-06-19T00:48:00;95008.00;;;19.54;60.74
40205;BME280;26963;42.666;23.366;2023-06-19T00:50:28;94955.28;;;19.23;58.95
40205;BME280;26963;42.666;23.366;2023-06-19T00:52:54;94993.03;;;19.44;59.71
40205;BME280;26963;42.666;23.366;2023-06-19T00:55:21;94882.28;;;18.73;59.01
40205;BME280;26963;42.666;23.366;2023-06-19T00:57:46;94996.88;;;19.43;60.10
40205;BME280;26963;42.666;23.366;2023-06-19T01:00:12;94971.72;;;19.30;60.18
40205;BME280;26963;42.666;23.366;2023-06-19T01:02:39;94992.03;;;19.36;58.52
40205;BME280;26963;42.666;23.366;2023-06-19T01:05:05;94973.41;;;19.35;60.42
40205;BME280;26963;42.666;23.366;2023-06-19T01:10:30;94963.84;;;19.25;59.60
40205;BME280;26963;42.666;23.366;2023-06-19T01:13:10;94994.13;;;19.27;59.55
40205;BME280;26963;42.666;23.366;2023-06-19T01:15:38;94981.69;;;19.26;59.57
40205;BME280;26963;42.666;23.366;2023-06-19T01:18:06;94935.63;;;18.98;60.46
40205;BME280;26963;42.666;23.366;2023-06-19T01:20:32;94970.22;;;19.17;60.74
40205;BME280;26963;42.666;23.366;2023-06-19T01:23:08;94972.72;;;19.10;59.95
40205;BME280;26963;42.666;23.366;2023-06-19T01:25:34;94964.59;;;19.10;61.23
40205;BME280;26963;42.666;23.366;2023-06-19T01:28:04;94971.97;;;19.09;60.25
40205;BME280;26963;42.666;23.366;2023-06-19T01:30:31;94967.09;;;19.02;60.39
40205;BME280;26963;42.666;23.366;2023-06-19T01:35:35;94990.13;;;19.09;60.94
40205;BME280;26963;42.666;23.366;2023-06-19T01:38:02;94960.59;;;18.91;62.39
40205;BME280;26963;42.666;23.366;2023-06-19T01:40:29;94970.88;;;18.98;61.69
40205;BME280;26963;42.666;23.366;2023-06-19T01:42:58;94924.09;;;18.60;60.98
40205;BME280;26963;42.666;23.366;2023-06-19T01:45:27;94930.41;;;18.64;61.19
40205;BME280;26963;42.666;23.366;2023-06-19T01:47:54;95003.25;;;19.06;59.72
40205;BME280;26963;42.666;23.366;2023-06-19T01:50:21;94988.63;;;18.95;60.15
40205;BME280;26963;42.666;23.366;2023-06-19T01:52:47;94999.47;;;18.95;60.26
40205;BME280;26963;42.666;23.366;2023-06-19T01:55:13;94979.78;;;18.86;60.27
40205;BME280;26963;42.666;23.366;2023-06-19T01:57:39;94993.13;;;18.91;59.46
40205;BME280;26963;42.666;23.366;2023-06-19T02:00:05;94969.16;;;18.65;59.99
40205;BME280;26963;42.666;23.366;2023-06-19T02:02:33;94961.81;;;18.53;60.79
40205;BME280;26963;42.666;23.366;2023-06-19T02:04:59;94946.28;;;18.37;61.50
40205;BME280;26963;42.666;23.366;2023-06-19T02:07:25;94957.56;;;18.39;61.79
40205;BME280;26963;42.666;23.366;2023-06-19T02:09:51;95007.97;;;18.69;63.46
40205;BME280;26963;42.666;23.366;2023-06-19T02:12:16;94963.53;;;18.33;62.78
40205;BME280;26963;42.666;23.366;2023-06-19T02:14:43;95010.81;;;18.60;63.21
40205;BME280;26963;42.666;23.366;2023-06-19T02:17:08;94965.94;;;18.22;63.51
40205;BME280;26963;42.666;23.366;2023-06-19T02:19:34;95007.75;;;18.49;63.01
40205;BME280;26963;42.666;23.366;2023-06-19T02:21:59;94958.28;;;18.12;63.22
40205;BME280;26963;42.666;23.366;2023-06-19T02:24:25;95014.22;;;18.45;62.59
40205;BME280;26963;42.666;23.366;2023-06-19T02:26:50;95010.03;;;18.35;62.07
40205;BME280;26963;42.666;23.366;2023-06-19T02:29:16;95006.22;;;18.36;63.14
40205;BME280;26963;42.666;23.366;2023-06-19T02:31:41;94955.13;;;17.97;62.91
40205;BME280;26963;42.666;23.366;2023-06-19T02:34:08;94942.91;;;17.91;62.49
40205;BME280;26963;42.666;23.366;2023-06-19T02:36:37;95009.69;;;18.36;63.06
40205;BME280;26963;42.666;23.366;2023-06-19T02:39:05;95028.88;;;18.44;62.82
40205;BME280;26963;42.666;23.366;2023-06-19T02:41:32;94983.78;;;18.11;63.04
40205;BME280;26963;42.666;23.366;2023-06-19T02:43:57;94946.63;;;17.86;62.73
40205;BME280;26963;42.666;23.366;2023-06-19T02:46:23;95015.34;;;18.31;63.79
40205;BME280;26963;42.666;23.366;2023-06-19T02:48:48;95003.97;;;18.13;62.81
40205;BME280;26963;42.666;23.366;2023-06-19T02:51:14;95018.06;;;18.19;62.98
40205;BME280;26963;42.666;23.366;2023-06-19T02:53:39;95010.16;;;18.14;62.78
40205;BME280;26963;42.666;23.366;2023-06-19T02:56:07;95018.84;;;18.19;63.34
40205;BME280;26963;42.666;23.366;2023-06-19T02:58:33;95026.63;;;18.21;63.78
40205;BME280;26963;42.666;23.366;2023-06-19T03:00:59;95018.16;;;18.10;63.90
40205;BME280;26963;42.666;23.366;2023-06-19T03:03:25;94957.69;;;17.69;64.66
40205;BME280;26963;42.666;23.366;2023-06-19T03:05:51;95009.03;;;18.02;65.19
40205;BME280;26963;42.666;23.366;2023-06-19T03:08:17;95024.81;;;18.13;65.49
40205;BME280;26963;42.666;23.366;2023-06-19T03:10:42;95011.41;;;18.04;65.16
40205;BME280;26963;42.666;23.366;2023-06-19T03:13:08;95001.31;;;17.92;65.29
40205;BME280;26963;42.666;23.366;2023-06-19T03:15:33;95021.00;;;18.14;65.47
40205;BME280;26963;42.666;23.366;2023-06-19T03:17:59;94989.13;;;17.86;64.78
40205;BME280;26963;42.666;23.366;2023-06-19T03:20:28;95020.22;;;18.13;64.48
40205;BME280;26963;42.666;23.366;2023-06-19T03:22:54;95018.50;;;18.08;64.20
40205;BME280;26963;42.666;23.366;2023-06-19T03:25:19;94972.00;;;17.82;64.71
40205;BME280;26963;42.666;23.366;2023-06-19T03:27:45;95013.09;;;18.08;64.80
40205;BME280;26963;42.666;23.366;2023-06-19T03:30:11;95019.63;;;18.20;65.33
40205;BME280;26963;42.666;23.366;2023-06-19T03:32:38;95029.22;;;18.30;65.62
40205;BME280;26963;42.666;23.366;2023-06-19T03:35:04;95029.13;;;18.38;65.29
40205;BME280;26963;42.666;23.366;2023-06-19T03:37:30;95018.41;;;18.42;65.64
40205;BME280;26963;42.666;23.366;2023-06-19T03:39:57;94952.41;;;18.09;65.68
40205;BME280;26963;42.666;23.366;2023-06-19T03:42:23;95030.78;;;18.68;65.42
40205;BME280;26963;42.666;23.366;2023-06-19T03:44:49;95024.00;;;18.74;64.76
40205;BME280;26963;42.666;23.366;2023-06-19T03:47:14;95020.69;;;18.81;64.59
40205;BME280;26963;42.666;23.366;2023-06-19T03:49:41;95029.72;;;18.97;64.08
40205;BME280;26963;42.666;23.366;2023-06-19T03:52:07;94967.22;;;18.65;64.67
40205;BME280;26963;42.666;23.366;2023-06-19T03:54:33;95023.66;;;19.16;64.38
40205;BME280;26963;42.666;23.366;2023-06-19T03:56:58;94989.50;;;18.99;64.04
40205;BME280;26963;42.666;23.366;2023-06-19T03:59:24;95022.03;;;19.56;63.12
40205;BME280;26963;42.666;23.366;2023-06-19T04:01:49;95010.84;;;19.74;60.69
40205;BME280;26963;42.666;23.366;2023-06-19T04:04:15;95012.63;;;20.14;59.25
40205;BME280;26963;42.666;23.366;2023-06-19T04:06:40;94948.06;;;20.07;58.35
40205;BME280;26963;42.666;23.366;2023-06-19T04:09:06;95010.25;;;20.80;56.83
40205;BME280;26963;42.666;23.366;2023-06-19T04:11:31;95011.13;;;21.43;55.43
40205;BME280;26963;42.666;23.366;2023-06-19T04:13:57;95010.69;;;22.30;53.15
40205;BME280;26963;42.666;23.366;2023-06-19T04:16:22;95018.34;;;23.32;49.79
40205;BME280;26963;42.666;23.366;2023-06-19T04:18:48;95001.25;;;24.17;48.23
40205;BME280;26963;42.666;23.366;2023-06-19T04:21:13;95003.38;;;25.05;45.26
40205;BME280;26963;42.666;23.366;2023-06-19T04:23:39;94985.59;;;25.69;44.07
40205;BME280;26963;42.666;23.366;2023-06-19T04:26:04;94990.38;;;26.23;42.32
40205;BME280;26963;42.666;23.366;2023-06-19T04:28:30;94985.63;;;26.77;41.55
40205;BME280;26963;42.666;23.366;2023-06-19T04:30:55;94995.38;;;26.93;40.60
40205;BME280;26963;42.666;23.366;2023-06-19T04:33:27;95012.50;;;27.37;39.78
40205;BME280;26963;42.666;23.366;2023-06-19T04:35:53;94968.84;;;27.60;38.19
40205;BME280;26963;42.666;23.366;2023-06-19T04:38:19;95003.41;;;28.67;37.08
40205;BME280;26963;42.666;23.366;2023-06-19T04:40:50;94998.63;;;29.43;35.47
40205;BME280;26963;42.666;23.366;2023-06-19T04:43:15;94994.75;;;29.99;33.87
40205;BME280;26963;42.666;23.366;2023-06-19T04:45:44;94966.34;;;30.26;33.06
40205;BME280;26963;42.666;23.366;2023-06-19T04:48:12;95008.91;;;30.96;32.07
40205;BME280;26963;42.666;23.366;2023-06-19T04:50:38;94999.44;;;31.37;31.44
40205;BME280;26963;42.666;23.366;2023-06-19T04:53:03;94999.84;;;31.76;30.67
40205;BME280;26963;42.666;23.366;2023-06-19T04:55:29;94995.78;;;31.97;30.36
40205;BME280;26963;42.666;23.366;2023-06-19T04:57:55;94965.88;;;30.55;32.34
40205;BME280;26963;42.666;23.366;2023-06-19T05:00:21;95012.66;;;29.22;35.08
40205;BME280;26963;42.666;23.366;2023-06-19T05:02:49;94878.47;;;27.06;37.79
40205;BME280;26963;42.666;23.366;2023-06-19T05:05:15;94993.47;;;26.68;39.90
40205;BME280;26963;42.666;23.366;2023-06-19T05:07:41;94931.56;;;25.40;41.80
40205;BME280;26963;42.666;23.366;2023-06-19T05:10:07;94990.50;;;25.09;43.13
40205;BME280;26963;42.666;23.366;2023-06-19T05:12:34;95005.44;;;24.59;44.07
40205;BME280;26963;42.666;23.366;2023-06-19T05:15:00;95025.06;;;24.13;46.19
40205;BME280;26963;42.666;23.366;2023-06-19T05:17:25;94997.53;;;23.54;46.65
40205;BME280;26963;42.666;23.366;2023-06-19T05:19:51;95012.06;;;23.27;46.89
40205;BME280;26963;42.666;23.366;2023-06-19T05:22:17;95022.53;;;22.95;47.33
40205;BME280;26963;42.666;23.366;2023-06-19T05:24:44;95025.47;;;22.79;48.25
40205;BME280;26963;42.666;23.366;2023-06-19T05:27:09;94983.75;;;22.25;48.51
40205;BME280;26963;42.666;23.366;2023-06-19T05:29:35;95027.88;;;22.34;47.36
40205;BME280;26963;42.666;23.366;2023-06-19T05:32:01;94971.06;;;21.86;48.02
40205;BME280;26963;42.666;23.366;2023-06-19T05:34:27;95036.84;;;22.11;49.73
40205;BME280;26963;42.666;23.366;2023-06-19T05:36:52;95036.56;;;21.93;50.14
40205;BME280;26963;42.666;23.366;2023-06-19T05:39:18;95041.16;;;21.89;50.59
40205;BME280;26963;42.666;23.366;2023-06-19T05:41:44;95044.19;;;21.84;50.28
40205;BME280;26963;42.666;23.366;2023-06-19T05:44:11;95038.16;;;21.75;49.60
40205;BME280;26963;42.666;23.366;2023-06-19T05:46:41;94999.56;;;21.49;49.64
40205;BME280;26963;42.666;23.366;2023-06-19T05:49:07;94995.84;;;21.38;50.23
40205;BME280;26963;42.666;23.366;2023-06-19T05:51:32;95043.97;;;21.73;49.92
40205;BME280;26963;42.666;23.366;2023-06-19T05:53:58;95032.19;;;21.65;49.91
40205;BME280;26963;42.666;23.366;2023-06-19T05:56:29;95031.75;;;21.63;49.93
40205;BME280;26963;42.666;23.366;2023-06-19T05:58:55;95040.47;;;21.73;50.24
40205;BME280;26963;42.666;23.366;2023-06-19T06:01:21;95041.03;;;21.82;49.48
40205;BME280;26963;42.666;23.366;2023-06-19T06:03:47;95049.81;;;21.95;50.27
40205;BME280;26963;42.666;23.366;2023-06-19T06:06:12;94998.91;;;21.76;49.92
40205;BME280;26963;42.666;23.366;2023-06-19T06:08:38;95038.94;;;22.18;49.67
40205;BME280;26963;42.666;23.366;2023-06-19T06:11:03;95051.41;;;22.42;48.73
40205;BME280;26963;42.666;23.366;2023-06-19T06:13:29;95047.47;;;22.67;48.72
40205;BME280;26963;42.666;23.366;2023-06-19T06:15:55;95056.75;;;23.46;46.55
40205;BME280;26963;42.666;23.366;2023-06-19T06:18:20;95047.28;;;25.27;42.13
40205;BME280;26963;42.666;23.366;2023-06-19T06:20:46;95056.47;;;28.14;36.03
40205;BME280;26963;42.666;23.366;2023-06-19T06:23:11;95047.88;;;30.58;32.67
40205;BME280;26963;42.666;23.366;2023-06-19T06:25:37;94993.91;;;32.11;29.21
40205;BME280;26963;42.666;23.366;2023-06-19T06:28:02;94997.75;;;33.68;27.13
40205;BME280;26963;42.666;23.366;2023-06-19T06:30:28;95033.22;;;35.02;24.89
40205;BME280;26963;42.666;23.366;2023-06-19T06:32:53;95032.41;;;36.21;23.47
40205;BME280;26963;42.666;23.366;2023-06-19T06:35:20;95045.94;;;36.92;21.12
40205;BME280;26963;42.666;23.366;2023-06-19T06:37:46;95043.75;;;37.61;20.80
40205;BME280;26963;42.666;23.366;2023-06-19T06:40:14;95044.53;;;38.23;20.53
40205;BME280;26963;42.666;23.366;2023-06-19T06:42:40;95043.94;;;38.86;19.75
40205;BME280;26963;42.666;23.366;2023-06-19T06:45:06;95041.28;;;39.45;19.40
40205;BME280;26963;42.666;23.366;2023-06-19T06:47:32;95032.81;;;39.85;18.80
40205;BME280;26963;42.666;23.366;2023-06-19T06:49:58;95036.94;;;40.34;18.56
40205;BME280;26963;42.666;23.366;2023-06-19T06:52:24;94964.75;;;40.29;17.92
40205;BME280;26963;42.666;23.366;2023-06-19T06:54:49;95046.66;;;41.10;17.27
40205;BME280;26963;42.666;23.366;2023-06-19T06:57:16;95054.53;;;41.53;16.99
40205;BME280;26963;42.666;23.366;2023-06-19T06:59:41;95018.41;;;41.66;16.61
40205;BME280;26963;42.666;23.366;2023-06-19T07:02:07;95046.81;;;42.00;15.75
40205;BME280;26963;42.666;23.366;2023-06-19T07:04:32;95041.25;;;41.80;15.42
40205;BME280;26963;42.666;23.366;2023-06-19T07:06:58;95057.06;;;42.03;15.64
40205;BME280;26963;42.666;23.366;2023-06-19T07:09:24;95007.47;;;42.00;15.98
40205;BME280;26963;42.666;23.366;2023-06-19T07:11:49;95020.22;;;42.28;15.40
40205;BME280;26963;42.666;23.366;2023-06-19T07:14:15;95009.00;;;42.33;14.89
40205;BME280;26963;42.666;23.366;2023-06-19T07:16:44;95051.47;;;42.79;15.98
40205;BME280;26963;42.666;23.366;2023-06-19T07:19:11;95040.03;;;42.99;15.70
40205;BME280;26963;42.666;23.366;2023-06-19T07:21:37;95014.72;;;42.99;15.24
40205;BME280;26963;42.666;23.366;2023-06-19T07:24:04;95044.53;;;43.34;14.49
40205;BME280;26963;42.666;23.366;2023-06-19T07:26:30;95015.34;;;43.38;14.74
40205;BME280;26963;42.666;23.366;2023-06-19T07:28:55;95049.75;;;43.59;15.02
40205;BME280;26963;42.666;23.366;2023-06-19T07:31:21;95056.47;;;44.07;13.98
40205;BME280;26963;42.666;23.366;2023-06-19T07:33:46;95010.84;;;43.91;14.26
40205;BME280;26963;42.666;23.366;2023-06-19T07:36:12;95042.09;;;44.16;14.04
40205;BME280;26963;42.666;23.366;2023-06-19T07:38:40;95030.31;;;44.35;14.24
40205;BME280;26963;42.666;23.366;2023-06-19T07:41:06;95059.78;;;44.51;14.17
40205;BME280;26963;42.666;23.366;2023-06-19T07:43:32;95029.00;;;44.58;14.65
40205;BME280;26963;42.666;23.366;2023-06-19T07:45:58;95051.47;;;44.98;14.13
40205;BME280;26963;42.666;23.366;2023-06-19T07:48:24;95054.81;;;44.97;13.74
40205;BME280;26963;42.666;23.366;2023-06-19T07:50:50;95045.28;;;45.00;14.21
40205;BME280;26963;42.666;23.366;2023-06-19T07:53:15;95007.94;;;44.76;13.86
40205;BME280;26963;42.666;23.366;2023-06-19T07:55:41;95015.34;;;44.85;13.86
40205;BME280;26963;42.666;23.366;2023-06-19T07:58:07;95046.03;;;45.17;14.25
40205;BME280;26963;42.666;23.366;2023-06-19T08:00:32;95056.78;;;45.24;13.19
40205;BME280;26963;42.666;23.366;2023-06-19T08:02:58;95008.81;;;45.13;13.93
40205;BME280;26963;42.666;23.366;2023-06-19T08:05:23;95015.22;;;45.19;13.53
40205;BME280;26963;42.666;23.366;2023-06-19T08:07:49;95042.28;;;45.45;13.33
40205;BME280;26963;42.666;23.366;2023-06-19T08:10:14;95039.69;;;45.53;13.66
40205;BME280;26963;42.666;23.366;2023-06-19T08:12:44;95047.88;;;45.56;13.23
40205;BME280;26963;42.666;23.366;2023-06-19T08:15:10;95014.38;;;45.30;12.86
40205;BME280;26963;42.666;23.366;2023-06-19T08:17:36;95043.28;;;45.53;12.37
40205;BME280;26963;42.666;23.366;2023-06-19T08:20:02;94995.19;;;45.23;13.04
40205;BME280;26963;42.666;23.366;2023-06-19T08:22:30;95046.84;;;45.59;12.87
40205;BME280;26963;42.666;23.366;2023-06-19T08:24:56;95047.13;;;45.50;12.58
40205;BME280;26963;42.666;23.366;2023-06-19T08:27:21;94989.84;;;45.08;12.35
40205;BME280;26963;42.666;23.366;2023-06-19T08:29:47;95052.53;;;45.48;12.57
40205;BME280;26963;42.666;23.366;2023-06-19T08:32:12;95014.69;;;45.21;12.93
40205;BME280;26963;42.666;23.366;2023-06-19T08:34:38;95009.31;;;45.17;13.15
40205;BME280;26963;42.666;23.366;2023-06-19T08:37:05;95054.13;;;45.38;13.03
40205;BME280;26963;42.666;23.366;2023-06-19T08:39:31;95042.91;;;45.26;12.88
40205;BME280;26963;42.666;23.366;2023-06-19T08:41:57;95001.50;;;44.87;12.48
40205;BME280;26963;42.666;23.366;2023-06-19T08:44:24;95028.41;;;44.88;11.71
40205;BME280;26963;42.666;23.366;2023-06-19T08:46:50;95047.13;;;44.91;12.11
40205;BME280;26963;42.666;23.366;2023-06-19T08:49:16;95019.97;;;44.66;12.35
40205;BME280;26963;42.666;23.366;2023-06-19T08:51:42;95056.88;;;44.90;12.97
40205;BME280;26963;42.666;23.366;2023-06-19T08:54:07;95037.91;;;44.85;13.00
40205;BME280;26963;42.666;23.366;2023-06-19T08:56:34;94998.72;;;44.76;12.79
40205;BME280;26963;42.666;23.366;2023-06-19T08:59:11;95034.31;;;44.90;12.82
40205;BME280;26963;42.666;23.366;2023-06-19T09:01:37;94972.59;;;44.53;12.99
40205;BME280;26963;42.666;23.366;2023-06-19T09:04:11;95045.38;;;44.71;12.24
40205;BME280;26963;42.666;23.366;2023-06-19T09:06:52;95036.19;;;44.59;12.32
40205;BME280;26963;42.666;23.366;2023-06-19T09:09:21;95026.72;;;44.40;12.76
40205;BME280;26963;42.666;23.366;2023-06-19T09:12:07;94999.31;;;44.23;13.28
40205;BME280;26963;42.666;23.366;2023-06-19T09:14:37;95043.06;;;44.70;14.15
40205;BME280;26963;42.666;23.366;2023-06-19T09:17:04;95051.03;;;44.71;13.07
40205;BME280;26963;42.666;23.366;2023-06-19T09:19:30;94986.50;;;44.39;13.77
40205;BME280;26963;42.666;23.366;2023-06-19T09:22:02;95014.41;;;44.31;13.05
40205;BME280;26963;42.666;23.366;2023-06-19T09:24:36;95016.00;;;43.98;13.31
40205;BME280;26963;42.666;23.366;2023-06-19T09:27:12;95040.97;;;43.40;14.23
40205;BME280;26963;42.666;23.366;2023-06-19T09:29:42;95030.00;;;42.38;14.92
40205;BME280;26963;42.666;23.366;2023-06-19T09:34:43;95029.63;;;39.62;15.65
40205;BME280;26963;42.666;23.366;2023-06-19T09:37:09;95040.78;;;38.26;17.36
40205;BME280;26963;42.666;23.366;2023-06-19T09:39:37;95037.28;;;37.08;18.68
40205;BME280;26963;42.666;23.366;2023-06-19T09:42:06;94961.00;;;35.65;20.27
40205;BME280;26963;42.666;23.366;2023-06-19T09:44:39;95013.56;;;35.40;21.23
40205;BME280;26963;42.666;23.366;2023-06-19T09:47:12;94984.38;;;34.66;20.50
40205;BME280;26963;42.666;23.366;2023-06-19T09:49:43;95025.13;;;34.34;21.00
40205;BME280;26963;42.666;23.366;2023-06-19T09:52:12;95038.75;;;33.89;23.53
40205;BME280;26963;42.666;23.366;2023-06-19T09:54:39;95031.00;;;33.42;23.77
40205;BME280;26963;42.666;23.366;2023-06-19T09:57:05;95031.22;;;33.18;24.22
40205;BME280;26963;42.666;23.366;2023-06-19T09:59:31;95026.97;;;32.84;23.93
40205;BME280;26963;42.666;23.366;2023-06-19T10:01:57;95038.59;;;32.62;24.15
40205;BME280;26963;42.666;23.366;2023-06-19T10:04:23;95034.50;;;32.50;25.95
40205;BME280;26963;42.666;23.366;2023-06-19T10:06:49;95017.47;;;32.19;25.12
40205;BME280;26963;42.666;23.366;2023-06-19T10:09:15;95012.25;;;32.04;24.98
40205;BME280;26963;42.666;23.366;2023-06-19T10:11:51;95003.75;;;31.79;24.79
40205;BME280;26963;42.666;23.366;2023-06-19T10:14:21;95019.97;;;31.77;24.50
40205;BME280;26963;42.666;23.366;2023-06-19T10:16:47;94963.31;;;31.28;25.30
40205;BME280;26963;42.666;23.366;2023-06-19T10:19:17;95009.28;;;31.38;26.20
40205;BME280;26963;42.666;23.366;2023-06-19T10:21:47;95008.94;;;31.36;26.79
40205;BME280;26963;42.666;23.366;2023-06-19T10:24:18;94992.09;;;31.11;26.59
40205;BME280;26963;42.666;23.366;2023-06-19T10:26:59;94986.03;;;30.96;26.10
40205;BME280;26963;42.666;23.366;2023-06-19T10:29:25;95004.81;;;31.04;27.16
40205;BME280;26963;42.666;23.366;2023-06-19T10:31:52;95004.53;;;30.99;26.68
40205;BME280;26963;42.666;23.366;2023-06-19T10:34:18;94999.25;;;30.84;26.21
40205;BME280;26963;42.666;23.366;2023-06-19T10:36:44;94997.41;;;30.78;26.67
40205;BME280;26963;42.666;23.366;2023-06-19T10:39:10;94998.50;;;30.60;27.71
40205;BME280;26963;42.666;23.366;2023-06-19T10:41:39;94996.28;;;30.51;28.08
40205;BME280;26963;42.666;23.366;2023-06-19T10:44:06;95006.16;;;30.52;26.29
40205;BME280;26963;42.666;23.366;2023-06-19T10:46:38;94990.19;;;30.36;26.95
40205;BME280;26963;42.666;23.366;2023-06-19T10:49:05;94984.28;;;30.38;26.98
40205;BME280;26963;42.666;23.366;2023-06-19T10:51:40;94955.91;;;30.14;27.00
40205;BME280;26963;42.666;23.366;2023-06-19T10:54:09;95002.81;;;30.37;26.75
40205;BME280;26963;42.666;23.366;2023-06-19T10:56:35;94997.22;;;30.41;25.99
40205;BME280;26963;42.666;23.366;2023-06-19T11:01:40;94988.75;;;30.04;28.48
40205;BME280;26963;42.666;23.366;2023-06-19T11:04:16;94972.97;;;29.77;28.38
40205;BME280;26963;42.666;23.366;2023-06-19T11:06:43;94991.38;;;29.84;28.01
40205;BME280;26963;42.666;23.366;2023-06-19T11:09:11;94992.69;;;29.76;27.44
40205;BME280;26963;42.666;23.366;2023-06-19T11:11:46;94994.19;;;29.81;27.39
40205;BME280;26963;42.666;23.366;2023-06-19T11:14:13;94979.44;;;29.67;28.21
40205;BME280;26963;42.666;23.366;2023-06-19T11:16:44;94990.47;;;29.67;28.20
40205;BME280;26963;42.666;23.366;2023-06-19T11:19:16;94985.97;;;29.50;29.06
40205;BME280;26963;42.666;23.366;2023-06-19T11:21:46;94967.34;;;29.30;29.15
40205;BME280;26963;42.666;23.366;2023-06-19T11:24:13;94992.88;;;29.34;29.56
40205;BME280;26963;42.666;23.366;2023-06-19T11:26:40;94894.13;;;28.60;30.72
40205;BME280;26963;42.666;23.366;2023-06-19T11:29:20;94940.56;;;28.96;29.51
40205;BME280;26963;42.666;23.366;2023-06-19T11:31:47;94986.63;;;29.30;29.61
40205;BME280;26963;42.666;23.366;2023-06-19T11:34:14;94985.84;;;29.26;29.92
40205;BME280;26963;42.666;23.366;2023-06-19T11:36:41;94974.47;;;29.24;30.67
40205;BME280;26963;42.666;23.366;2023-06-19T11:39:15;94969.25;;;29.33;30.97
40205;BME280;26963;42.666;23.366;2023-06-19T11:41:42;94974.34;;;29.35;30.92
40205;BME280;26963;42.666;23.366;2023-06-19T11:44:08;94975.06;;;29.39;31.23
40205;BME280;26963;42.666;23.366;2023-06-19T11:46:37;94976.78;;;29.29;31.14
40205;BME280;26963;42.666;23.366;2023-06-19T11:49:14;94957.44;;;28.98;31.37
40205;BME280;26963;42.666;23.366;2023-06-19T11:51:42;94956.63;;;29.01;32.29
40205;BME280;26963;42.666;23.366;2023-06-19T11:54:08;94970.22;;;29.16;32.03
40205;BME280;26963;42.666;23.366;2023-06-19T11:56:38;94932.31;;;28.96;32.91
40205;BME280;26963;42.666;23.366;2023-06-19T11:59:04;94959.59;;;29.18;31.82
40205;BME280;26963;42.666;23.366;2023-06-19T12:01:34;94951.81;;;29.09;31.86
40205;BME280;26963;42.666;23.366;2023-06-19T12:04:00;94952.69;;;29.02;31.68
40205;BME280;26963;42.666;23.366;2023-06-19T12:06:27;94902.75;;;28.66;31.61
40205;BME280;26963;42.666;23.366;2023-06-19T12:08:53;94913.41;;;28.60;31.60
40205;BME280;26963;42.666;23.366;2023-06-19T12:11:19;94951.19;;;28.94;31.90
40205;BME280;26963;42.666;23.366;2023-06-19T12:13:44;94955.59;;;28.88;32.16
40205;BME280;26963;42.666;23.366;2023-06-19T12:16:11;94947.78;;;28.83;32.90
40205;BME280;26963;42.666;23.366;2023-06-19T12:18:36;94960.75;;;28.86;32.52
40205;BME280;26963;42.666;23.366;2023-06-19T12:21:02;94957.69;;;28.76;33.43
40205;BME280;26963;42.666;23.366;2023-06-19T12:23:28;94952.25;;;28.69;32.52
40205;BME280;26963;42.666;23.366;2023-06-19T12:25:54;94955.88;;;28.59;32.87
40205;BME280;26963;42.666;23.366;2023-06-19T12:28:19;94941.50;;;28.44;33.01
40205;BME280;26963;42.666;23.366;2023-06-19T12:30:46;94954.84;;;28.45;33.68
40205;BME280;26963;42.666;23.366;2023-06-19T12:33:18;94956.47;;;28.39;33.28
40205;BME280;26963;42.666;23.366;2023-06-19T12:35:46;94913.47;;;28.11;33.75
40205;BME280;26963;42.666;23.366;2023-06-19T12:38:12;94962.66;;;28.51;33.65
40205;BME280;26963;42.666;23.366;2023-06-19T12:40:38;94969.34;;;28.50;32.91
40205;BME280;26963;42.666;23.366;2023-06-19T12:43:04;94951.34;;;28.41;33.24
40205;BME280;26963;42.666;23.366;2023-06-19T12:45:29;94932.22;;;28.27;33.09
40205;BME280;26963;42.666;23.366;2023-06-19T12:47:55;94947.09;;;28.33;33.40
40205;BME280;26963;42.666;23.366;2023-06-19T12:50:21;94901.78;;;28.03;33.08
40205;BME280;26963;42.666;23.366;2023-06-19T12:52:47;94948.34;;;28.25;33.41
40205;BME280;26963;42.666;23.366;2023-06-19T12:55:13;94956.53;;;28.32;33.37
40205;BME280;26963;42.666;23.366;2023-06-19T12:57:39;94945.16;;;28.30;33.27
40205;BME280;26963;42.666;23.366;2023-06-19T13:00:09;94883.44;;;27.86;32.68